BBC Orinoco — V2DM2 — position and weather

sailwx.info

Track history (hours):
 
Tides and Currents Weather Stations Pressure Air Temp Water Temp Dewpoint Dewpoint Depression Visibility Wind Speed Wind Dir Waves Ship Positions

BBC Orinoco

Last reported at 2014-Nov-01 01:27 UTC. Time now 2014-Nov-01 01:52 UTC.
Position N 38°57' E 117°46'.

Length 143 m; draft 8.5 m.

Type: Ship. MMSI: 305255000.

Date/timePositionNaut miles runAvg speedWind from/ knotsBaromVisibWave heightAir tempDewpointWater temp
2014-Nov-01 01:27N 38°57' E 117°46'0 0.0
2014-Nov-01 00:32N 38°57' E 117°46'0 0.0
2014-Oct-31 23:32N 38°57' E 117°46'0 0.0
2014-Oct-31 22:31N 38°57' E 117°46'0 0.0
2014-Oct-31 21:31N 38°57' E 117°46'0 0.0
2014-Oct-31 20:18N 38°57' E 117°46'0 0.0
2014-Oct-31 19:30N 38°57' E 117°46'0 0.0
2014-Oct-31 18:30N 38°57' E 117°46'0 0.0
2014-Oct-31 17:17N 38°57' E 117°46'0 0.0
2014-Oct-31 16:29N 38°57' E 117°46'0 0.0
2014-Oct-31 15:28N 38°57' E 117°46'0 0.0
2014-Oct-31 14:22N 38°57' E 117°46'0 0.0
2014-Oct-31 13:33N 38°57' E 117°46'0 0.0
2014-Oct-31 12:27N 38°57' E 117°46'0 0.0
2014-Oct-31 11:33N 38°57' E 117°46'0 0.0
2014-Oct-31 10:26N 38°57' E 117°46'0 0.1
2014-Oct-31 09:32N 38°57' E 117°46'0 0.0
2014-Oct-31 08:31N 38°57' E 117°46'0 0.0
2014-Oct-31 07:31N 38°57' E 117°46'0 0.0
2014-Oct-31 06:30N 38°57' E 117°46'0 0.0
2014-Oct-31 05:30N 38°57' E 117°46'0 0.0
2014-Oct-31 04:30N 38°57' E 117°46'0 0.0
2014-Oct-31 03:29N 38°57' E 117°46'0 0.0
2014-Oct-31 02:23N 38°57' E 117°46'0 0.0
2014-Oct-31 01:28N 38°57' E 117°46'0 0.0
2014-Oct-31 00:28N 38°57' E 117°46'0 0.0
2014-Oct-30 23:33N 38°57' E 117°46'0 0.0
2014-Oct-30 22:27N 38°57' E 117°46'0 0.0
2014-Oct-30 21:33N 38°57' E 117°46'0 0.0
2014-Oct-30 20:32N 38°57' E 117°46'0 0.0
2014-Oct-30 19:26N 38°57' E 117°46'0 0.0
2014-Oct-30 18:31N 38°57' E 117°46'0 0.0
2014-Oct-30 17:31N 38°57' E 117°46'0 0.0
2014-Oct-30 16:24N 38°57' E 117°46'0 0.0
2014-Oct-30 15:31N 38°57' E 117°46'0 0.0
2014-Oct-30 14:23N 38°57' E 117°46'0 0.0
2014-Oct-30 13:29N 38°57' E 117°46'0 0.0
2014-Oct-30 12:30N 38°57' E 117°46'0 0.0
2014-Oct-30 11:22N 38°57' E 117°46'0 0.0
2014-Oct-30 10:16N 38°57' E 117°46'0 0.0
2014-Oct-30 09:33N 38°57' E 117°46'0 0.0
2014-Oct-30 08:33N 38°57' E 117°46'0 0.0
2014-Oct-30 07:33N 38°57' E 117°46'0 0.0
2014-Oct-30 06:32N 38°57' E 117°46'0 0.0
2014-Oct-30 05:26N 38°57' E 117°46'0 0.0
2014-Oct-30 04:31N 38°57' E 117°46'0 0.0
2014-Oct-30 03:25N 38°57' E 117°46'0 0.0
2014-Oct-30 02:30N 38°57' E 117°46'5 5.7
2014-Oct-30 01:33N 38°55' E 117°52'7 0.8
2014-Oct-29 17:30N 38°53' E 118°01'0 0.0
2014-Oct-29 15:05N 38°53' E 118°01'0 0.0
2014-Oct-29 11:22N 38°53' E 118°01'1 0.3
2014-Oct-29 06:33N 38°53' E 118°02'15611.9
2014-Oct-28 17:28N 37°58' E 121°08'1112.4
2014-Oct-28 16:33N 37°54' E 121°22'1212.1
2014-Oct-28 15:33N 37°50' E 121°36'1212.0
2014-Oct-28 14:33N 37°47' E 121°51'1212.2
2014-Oct-28 13:33N 37°44' E 122°06'1212.5
2014-Oct-28 12:33N 37°40' E 122°21'1312.8
2014-Oct-28 11:31N 37°37' E 122°37'2411.8
2014-Oct-28 09:29N 37°22' E 123°01'1111.5
2014-Oct-28 08:33N 37°14' E 123°09'1311.1
2014-Oct-28 07:25N 37°04' E 123°19'1310.8
2014-Oct-28 06:13N 36°54' E 123°29'710.9
2014-Oct-28 05:33N 36°48' E 123°35'1411.4
2014-Oct-28 04:19N 36°37' E 123°46'  
Track history (hours):
 
Tides and Currents Weather Stations Pressure Air Temp Water Temp Dewpoint Dewpoint Depression Visibility Wind Speed Wind Dir Waves Ship Positions

BBC Orinoco

Last reported at 2014-Nov-01 01:27 UTC. Time now 2014-Nov-01 01:52 UTC.
Position N 38°57' E 117°46'.

Length 143 m; draft 8.5 m.

Type: Ship. MMSI: 305255000.

Date/timePositionNaut miles runAvg speedWind from/ knotsBaromVisibWave heightAir tempDewpointWater temp
2014-Nov-01 01:27N 38°57' E 117°46'0 0.0
2014-Nov-01 00:32N 38°57' E 117°46'0 0.0
2014-Oct-31 23:32N 38°57' E 117°46'0 0.0
2014-Oct-31 22:31N 38°57' E 117°46'0 0.0
2014-Oct-31 21:31N 38°57' E 117°46'0 0.0
2014-Oct-31 20:18N 38°57' E 117°46'0 0.0
2014-Oct-31 19:30N 38°57' E 117°46'0 0.0
2014-Oct-31 18:30N 38°57' E 117°46'0 0.0
2014-Oct-31 17:17N 38°57' E 117°46'0 0.0
2014-Oct-31 16:29N 38°57' E 117°46'0 0.0
2014-Oct-31 15:28N 38°57' E 117°46'0 0.0
2014-Oct-31 14:22N 38°57' E 117°46'0 0.0
2014-Oct-31 13:33N 38°57' E 117°46'0 0.0
2014-Oct-31 12:27N 38°57' E 117°46'0 0.0
2014-Oct-31 11:33N 38°57' E 117°46'0 0.0
2014-Oct-31 10:26N 38°57' E 117°46'0 0.1
2014-Oct-31 09:32N 38°57' E 117°46'0 0.0
2014-Oct-31 08:31N 38°57' E 117°46'0 0.0
2014-Oct-31 07:31N 38°57' E 117°46'0 0.0
2014-Oct-31 06:30N 38°57' E 117°46'0 0.0
2014-Oct-31 05:30N 38°57' E 117°46'0 0.0
2014-Oct-31 04:30N 38°57' E 117°46'0 0.0
2014-Oct-31 03:29N 38°57' E 117°46'0 0.0
2014-Oct-31 02:23N 38°57' E 117°46'0 0.0
2014-Oct-31 01:28N 38°57' E 117°46'0 0.0
2014-Oct-31 00:28N 38°57' E 117°46'0 0.0
2014-Oct-30 23:33N 38°57' E 117°46'0 0.0
2014-Oct-30 22:27N 38°57' E 117°46'0 0.0
2014-Oct-30 21:33N 38°57' E 117°46'0 0.0
2014-Oct-30 20:32N 38°57' E 117°46'0 0.0
2014-Oct-30 19:26N 38°57' E 117°46'0 0.0
2014-Oct-30 18:31N 38°57' E 117°46'0 0.0
2014-Oct-30 17:31N 38°57' E 117°46'0 0.0
2014-Oct-30 16:24N 38°57' E 117°46'0 0.0
2014-Oct-30 15:31N 38°57' E 117°46'0 0.0
2014-Oct-30 14:23N 38°57' E 117°46'0 0.0
2014-Oct-30 13:29N 38°57' E 117°46'0 0.0
2014-Oct-30 12:30N 38°57' E 117°46'0 0.0
2014-Oct-30 11:22N 38°57' E 117°46'0 0.0
2014-Oct-30 10:16N 38°57' E 117°46'0 0.0
2014-Oct-30 09:33N 38°57' E 117°46'0 0.0
2014-Oct-30 08:33N 38°57' E 117°46'0 0.0
2014-Oct-30 07:33N 38°57' E 117°46'0 0.0
2014-Oct-30 06:32N 38°57' E 117°46'0 0.0
2014-Oct-30 05:26N 38°57' E 117°46'0 0.0
2014-Oct-30 04:31N 38°57' E 117°46'0 0.0
2014-Oct-30 03:25N 38°57' E 117°46'0 0.0
2014-Oct-30 02:30N 38°57' E 117°46'5 5.7
2014-Oct-30 01:33N 38°55' E 117°52'7 0.8
2014-Oct-29 17:30N 38°53' E 118°01'0 0.0
2014-Oct-29 15:05N 38°53' E 118°01'0 0.0
2014-Oct-29 11:22N 38°53' E 118°01'1 0.3
2014-Oct-29 06:33N 38°53' E 118°02'15611.9
2014-Oct-28 17:28N 37°58' E 121°08'1112.4
2014-Oct-28 16:33N 37°54' E 121°22'1212.1
2014-Oct-28 15:33N 37°50' E 121°36'1212.0
2014-Oct-28 14:33N 37°47' E 121°51'1212.2
2014-Oct-28 13:33N 37°44' E 122°06'1212.5
2014-Oct-28 12:33N 37°40' E 122°21'1312.8
2014-Oct-28 11:31N 37°37' E 122°37'2411.8
2014-Oct-28 09:29N 37°22' E 123°01'1111.5
2014-Oct-28 08:33N 37°14' E 123°09'1311.1
2014-Oct-28 07:25N 37°04' E 123°19'1310.8
2014-Oct-28 06:13N 36°54' E 123°29'710.9
2014-Oct-28 05:33N 36°48' E 123°35'1411.4
2014-Oct-28 04:19N 36°37' E 123°46'  

Dump ship's entire track history